Time;durP1;ratioP1;P1;durP2;ratioP2;P2;SDS_P1;SDS_P2;PMS_P1;PMS_P2;Temp;Humidity;BMP_temperature;BMP_pressure;BME280_temperature;BME280_humidity;BME280_pressure;Samples;Min_cycle;Max_cycle;Signal;HPM_P1;HPM_P2
2023/10/03 00:04:34;;;;;;;9.1;4;;;;;;;12.33;91.71;;;;;
2023/10/03 00:14:34;;;;;;;7.8;3.6;;;;;;;12.26;91.28;;;;;
2023/10/03 00:24:35;;;;;;;7.8;3.6;;;;;;;12.12;91.75;;;;;
2023/10/03 00:35:34;;;;;;;7;3.4;;;;;;;12.08;91.35;;;;;
2023/10/03 00:45:34;;;;;;;7;3.4;;;;;;;12.07;91.66;;;;;
2023/10/03 00:56:34;;;;;;;7;3.4;;;;;;;12.06;91.49;;;;;
2023/10/03 01:06:35;;;;;;;7.6;3.4;;;;;;;12.12;91.45;;;;;
2023/10/03 01:17:35;;;;;;;7.6;3.4;;;;;;;12.14;91.14;;;;;
2023/10/03 01:28:34;;;;;;;7.6;3.4;;;;;;;12.08;90.7;;;;;
2023/10/03 01:39:34;;;;;;;8;3.4;;;;;;;11.92;90.42;;;;;
2023/10/03 01:49:35;;;;;;;8;3.4;;;;;;;11.71;91.21;;;;;
2023/10/03 02:00:36;;;;;;;8;3.4;;;;;;;11.73;91.05;;;;;
2023/10/03 02:11:34;;;;;;;6.2;2.8;;;;;;;11.74;90.86;;;;;
2023/10/03 02:21:35;;;;;;;6.2;2.8;;;;;;;11.65;91.96;;;;;
2023/10/03 02:32:35;;;;;;;6.2;2.8;;;;;;;11.78;91.51;;;;;
2023/10/03 02:43:34;;;;;;;6.5;3.5;;;;;;;11.82;91.48;;;;;
2023/10/03 02:53:35;;;;;;;6.5;3.5;;;;;;;11.8;91.49;;;;;
2023/10/03 03:04:34;;;;;;;6.5;3.5;;;;;;;11.74;91.15;;;;;
2023/10/03 03:14:34;;;;;;;6.5;3.1;;;;;;;11.66;90.93;;;;;
2023/10/03 03:25:36;;;;;;;6.5;3.1;;;;;;;11.53;90.79;;;;;
2023/10/03 03:35:34;;;;;;;7.4;3.2;;;;;;;11.44;90.9;;;;;
2023/10/03 03:45:34;;;;;;;7.4;3.2;;;;;;;11.36;90.94;;;;;
2023/10/03 03:56:35;;;;;;;7.4;3.2;;;;;;;11.25;91.07;;;;;
2023/10/03 04:07:34;;;;;;;6.7;2.7;;;;;;;11.25;91.81;;;;;
2023/10/03 04:18:37;;;;;;;6.7;2.7;;;;;;;11.21;91.88;;;;;
2023/10/03 04:28:34;;;;;;;6.7;2.7;;;;;;;11.22;92.92;;;;;
2023/10/03 04:38:34;;;;;;;5.8;2.7;;;;;;;11.35;92.97;;;;;
2023/10/03 04:49:34;;;;;;;5.8;2.7;;;;;;;11.32;92.51;;;;;
2023/10/03 04:59:34;;;;;;;5.8;2.7;;;;;;;11.36;91.9;;;;;
2023/10/03 05:09:34;;;;;;;6;3.1;;;;;;;11.4;91.92;;;;;
2023/10/03 05:20:37;;;;;;;6;3.1;;;;;;;11.54;91.96;;;;;
2023/10/03 05:30:38;;;;;;;6;3.1;;;;;;;11.66;91.8;;;;;
2023/10/03 05:40:34;;;;;;;6.1;2.8;;;;;;;11.78;92.11;;;;;
2023/10/03 05:51:34;;;;;;;6.1;2.8;;;;;;;12.12;92.37;;;;;
2023/10/03 06:01:35;;;;;;;6.1;2.8;;;;;;;12.4;91.97;;;;;
2023/10/03 06:11:34;;;;;;;9.1;4.2;;;;;;;12.76;91.76;;;;;
2023/10/03 06:22:35;;;;;;;9.1;4.2;;;;;;;13.22;91.58;;;;;
2023/10/03 06:32:34;;;;;;;9.1;4.2;;;;;;;13.65;90.67;;;;;
2023/10/03 06:43:34;;;;;;;6.4;3.5;;;;;;;14.14;89.92;;;;;
2023/10/03 06:54:34;;;;;;;6.4;3.5;;;;;;;14.64;87.57;;;;;
2023/10/03 07:05:34;;;;;;;10.3;5.4;;;;;;;15.03;87.16;;;;;
2023/10/03 07:16:34;;;;;;;10.3;5.4;;;;;;;15.73;87.05;;;;;
2023/10/03 07:26:34;;;;;;;10.3;5.4;;;;;;;16.27;85.31;;;;;
2023/10/03 07:37:34;;;;;;;9.5;5.4;;;;;;;16.86;84.46;;;;;
2023/10/03 07:47:37;;;;;;;9.5;5.4;;;;;;;17.54;83.96;;;;;
2023/10/03 07:58:34;;;;;;;9.5;5.4;;;;;;;18.11;82.54;;;;;
2023/10/03 08:09:35;;;;;;;9.9;5.5;;;;;;;18.76;80.99;;;;;
2023/10/03 08:20:36;;;;;;;9.9;5.5;;;;;;;19.35;80.2;;;;;
2023/10/03 08:31:38;;;;;;;9.9;5.5;;;;;;;20.11;75.13;;;;;
2023/10/03 08:42:34;;;;;;;7.4;3.6;;;;;;;20.74;71.47;;;;;
2023/10/03 08:53:34;;;;;;;7.4;3.6;;;;;;;21.17;72.16;;;;;
2023/10/03 09:03:47;;;;;;;7.4;3.6;;;;;;;21.57;68.95;;;;;
2023/10/03 09:13:34;;;;;;;9.3;4.2;;;;;;;21.86;67.08;;;;;
2023/10/03 09:23:39;;;;;;;9.3;4.2;;;;;;;22.38;67.9;;;;;
2023/10/03 09:34:34;;;;;;;9.3;4.2;;;;;;;22.69;65.28;;;;;
2023/10/03 09:44:37;;;;;;;8;3.6;;;;;;;22.99;64.33;;;;;
2023/10/03 09:54:35;;;;;;;8;3.6;;;;;;;23.22;62.45;;;;;
2023/10/03 10:05:34;;;;;;;7.4;3.8;;;;;;;23.57;63.15;;;;;
2023/10/03 10:16:34;;;;;;;7.4;3.8;;;;;;;23.74;62.41;;;;;
2023/10/03 10:27:34;;;;;;;7.4;3.8;;;;;;;24.12;62.17;;;;;
2023/10/03 10:37:34;;;;;;;6.9;3.5;;;;;;;24.39;62.47;;;;;
2023/10/03 10:48:34;;;;;;;6.9;3.5;;;;;;;24.65;58.93;;;;;
2023/10/03 10:59:35;;;;;;;6.9;3.5;;;;;;;24.91;58.29;;;;;
2023/10/03 11:10:34;;;;;;;6;3.4;;;;;;;25.1;55.33;;;;;
2023/10/03 11:21:34;;;;;;;6;3.4;;;;;;;25.41;57.88;;;;;
2023/10/03 11:31:34;;;;;;;6;3.4;;;;;;;25.58;57.5;;;;;
2023/10/03 11:41:37;;;;;;;12.1;4.2;;;;;;;25.81;54.71;;;;;
2023/10/03 11:52:34;;;;;;;12.1;4.2;;;;;;;25.88;51.49;;;;;
2023/10/03 12:02:36;;;;;;;12.1;4.2;;;;;;;26.02;52.83;;;;;
2023/10/03 12:12:34;;;;;;;8.1;4.5;;;;;;;26.13;52.04;;;;;
2023/10/03 12:22:34;;;;;;;8.1;4.5;;;;;;;26.23;54.26;;;;;
2023/10/03 12:32:35;;;;;;;8.1;4.5;;;;;;;26.33;50.04;;;;;
2023/10/03 12:43:35;;;;;;;9.7;5.6;;;;;;;26.36;50.83;;;;;
2023/10/03 12:54:35;;;;;;;9.7;5.6;;;;;;;26.47;49.8;;;;;
2023/10/03 13:04:34;;;;;;;9.7;5.6;;;;;;;26.53;50.47;;;;;
2023/10/03 13:14:34;;;;;;;11.8;5.6;;;;;;;26.68;54.5;;;;;
2023/10/03 13:25:34;;;;;;;11.8;5.6;;;;;;;26.66;52.51;;;;;
2023/10/03 13:36:34;;;;;;;9.2;5.8;;;;;;;26.8;49.78;;;;;
2023/10/03 13:46:34;;;;;;;9.2;5.8;;;;;;;26.79;52.31;;;;;
2023/10/03 13:57:34;;;;;;;9.2;5.8;;;;;;;26.56;50.39;;;;;
2023/10/03 14:07:34;;;;;;;11;6.4;;;;;;;26.01;50.66;;;;;
2023/10/03 14:18:34;;;;;;;11;6.4;;;;;;;25.27;52.7;;;;;
2023/10/03 14:28:35;;;;;;;11;6.4;;;;;;;25.04;54.03;;;;;
2023/10/03 14:38:34;;;;;;;11.3;7;;;;;;;24.83;55.64;;;;;
2023/10/03 14:49:34;;;;;;;11.3;7;;;;;;;24.45;54.4;;;;;
2023/10/03 15:00:35;;;;;;;11.3;7;;;;;;;24.23;56.12;;;;;
2023/10/03 15:11:34;;;;;;;13.6;9.3;;;;;;;24.28;56.26;;;;;
2023/10/03 15:21:34;;;;;;;13.6;9.3;;;;;;;23.74;57.67;;;;;
2023/10/03 15:32:34;;;;;;;13.6;9.3;;;;;;;23.01;60.39;;;;;
2023/10/03 15:43:34;;;;;;;12.5;8.1;;;;;;;22.31;60.55;;;;;
2023/10/03 15:54:35;;;;;;;12.5;8.1;;;;;;;21.95;61.15;;;;;
2023/10/03 16:05:34;;;;;;;12.5;8.1;;;;;;;21.45;62.82;;;;;
2023/10/03 16:16:39;;;;;;;14;8.2;;;;;;;20.64;65.99;;;;;
2023/10/03 16:26:35;;;;;;;14;8.2;;;;;;;19.9;67.06;;;;;
2023/10/03 16:37:34;;;;;;;12;8;;;;;;;19.07;69.87;;;;;
2023/10/03 16:48:34;;;;;;;12;8;;;;;;;18.67;72.13;;;;;
2023/10/03 16:58:34;;;;;;;12;8;;;;;;;18.48;73.84;;;;;
2023/10/03 17:09:34;;;;;;;13.1;8.2;;;;;;;18.48;73.18;;;;;
2023/10/03 17:20:35;;;;;;;13.1;8.2;;;;;;;18.17;72.68;;;;;
2023/10/03 17:31:35;;;;;;;13.1;8.2;;;;;;;18.06;72.9;;;;;
2023/10/03 17:41:35;;;;;;;12.7;8;;;;;;;18.05;72.67;;;;;
2023/10/03 17:52:34;;;;;;;12.7;8;;;;;;;17.93;72.45;;;;;
2023/10/03 18:03:36;;;;;;;12.7;8;;;;;;;17.85;73.08;;;;;
2023/10/03 18:14:34;;;;;;;9.6;7;;;;;;;17.79;72.29;;;;;
2023/10/03 18:24:36;;;;;;;9.6;7;;;;;;;17.46;73.35;;;;;
2023/10/03 18:34:34;;;;;;;9.6;7;;;;;;;17.33;73.93;;;;;
2023/10/03 18:45:34;;;;;;;10.6;7;;;;;;;17.18;73.74;;;;;
2023/10/03 18:56:34;;;;;;;10.6;7;;;;;;;17.09;74.14;;;;;
2023/10/03 19:06:35;;;;;;;10;6.2;;;;;;;17.05;74.12;;;;;
2023/10/03 19:17:34;;;;;;;10;6.2;;;;;;;17.13;74.52;;;;;
2023/10/03 19:28:37;;;;;;;10;6.2;;;;;;;17.1;74.22;;;;;
2023/10/03 19:38:34;;;;;;;12.1;7.3;;;;;;;16.99;74.54;;;;;
2023/10/03 19:49:37;;;;;;;12.1;7.3;;;;;;;16.76;74.48;;;;;
2023/10/03 19:59:34;;;;;;;12.1;7.3;;;;;;;17.52;70.95;;;;;
2023/10/03 20:10:34;;;;;;;8.9;5.9;;;;;;;18.23;68.58;;;;;
2023/10/03 20:21:35;;;;;;;8.9;5.9;;;;;;;18.66;67.1;;;;;
2023/10/03 20:32:35;;;;;;;8.9;5.9;;;;;;;18.95;65.49;;;;;
2023/10/03 20:42:37;;;;;;;9.3;6;;;;;;;19.06;65.37;;;;;
2023/10/03 20:53:35;;;;;;;9.3;6;;;;;;;18.86;65.81;;;;;
2023/10/03 21:03:34;;;;;;;9.3;6;;;;;;;18.67;66.28;;;;;
2023/10/03 21:14:34;;;;;;;9.3;5.1;;;;;;;18.84;66.47;;;;;
2023/10/03 21:24:35;;;;;;;9.3;5.1;;;;;;;18.79;67.96;;;;;
2023/10/03 21:35:34;;;;;;;9.3;5.1;;;;;;;19.31;65.68;;;;;
2023/10/03 21:45:34;;;;;;;10.5;5.2;;;;;;;19.37;65.88;;;;;
2023/10/03 21:55:35;;;;;;;10.5;5.2;;;;;;;19.31;66.25;;;;;
2023/10/03 22:05:35;;;;;;;10.5;5.2;;;;;;;19.25;66.6;;;;;
2023/10/03 22:16:35;;;;;;;8.9;5.3;;;;;;;19.42;65.72;;;;;
2023/10/03 22:27:35;;;;;;;8.9;5.3;;;;;;;19.64;65.43;;;;;
2023/10/03 22:37:35;;;;;;;10.5;4.5;;;;;;;19.7;65.87;;;;;
2023/10/03 22:47:35;;;;;;;10.5;4.5;;;;;;;19.82;66;;;;;
2023/10/03 22:58:35;;;;;;;10.5;4.5;;;;;;;19.88;65.97;;;;;
2023/10/03 23:09:35;;;;;;;11.9;6.1;;;;;;;19.81;69.17;;;;;
2023/10/03 23:19:37;;;;;;;11.9;6.1;;;;;;;19.22;73.67;;;;;
2023/10/03 23:29:35;;;;;;;11.9;6.1;;;;;;;18.48;80.68;;;;;
2023/10/03 23:40:35;;;;;;;11.8;6.1;;;;;;;17.25;86.4;;;;;
2023/10/03 23:50:35;;;;;;;11.8;6.1;;;;;;;16.8;87.87;;;;;
